Time;durP1;ratioP1;P1;durP2;ratioP2;P2;SDS_P1;SDS_P2;PMS_P1;PMS_P2;Temp;Humidity;BMP_temperature;BMP_pressure;BME280_temperature;BME280_humidity;BME280_pressure;Samples;Min_cycle;Max_cycle;Signal;HPM_P1;HPM_P2
2022/05/01 00:00:17;;;;;;;1.40;1.30;;;;;;;;;;5032926;28;20700;-56
2022/05/01 00:03:06;;;;;;;1.40;1.30;;;;;;;;;;5033048;28;20693;-56
2022/05/01 00:05:53;;;;;;;1.53;1.43;;;;;;;;;;5029580;28;20214;-56
2022/05/01 00:08:43;;;;;;;3.37;1.20;;;;;;;;;;5030024;28;20313;-56
2022/05/01 00:11:31;;;;;;;1.13;1.13;;;;;;;;;;5032849;28;20241;-56
2022/05/01 00:14:18;;;;;;;1.20;1.10;;;;;;;;;;5030055;28;20213;-56
2022/05/01 00:17:05;;;;;;;1.37;1.33;;;;;;;;;;5029647;28;20291;-56
2022/05/01 00:19:54;;;;;;;0.80;0.80;;;;;;;;;;5035146;28;20585;-57
2022/05/01 00:22:41;;;;;;;1.27;1.27;;;;;;;;;;5031824;28;20340;-56
2022/05/01 00:25:28;;;;;;;1.10;1.00;;;;;;;;;;5031339;28;20210;-55
2022/05/01 00:28:17;;;;;;;1.10;1.10;;;;;;;;;;5037319;28;20235;-56
2022/05/01 00:31:05;;;;;;;1.30;1.20;;;;;;;;;;5028547;28;20427;-56
2022/05/01 00:36:57;;;;;;;1.43;0.97;;;;;;;;;;5028541;28;20213;-56
2022/05/01 00:39:44;;;;;;;1.17;1.13;;;;;;;;;;5031144;28;20703;-56
2022/05/01 00:42:31;;;;;;;2.63;1.10;;;;;;;;;;5029531;28;20673;-56
2022/05/01 00:45:19;;;;;;;1.10;1.10;;;;;;;;;;5029830;28;20210;-56
2022/05/01 00:48:07;;;;;;;1.10;1.10;;;;;;;;;;5021606;28;20410;-56
2022/05/01 00:50:54;;;;;;;1.03;0.93;;;;;;;;;;5016450;28;20255;-55
2022/05/01 00:53:41;;;;;;;1.00;1.00;;;;;;;;;;5016288;28;20234;-56
2022/05/01 00:56:30;;;;;;;1.43;1.00;;;;;;;;;;5017384;28;20287;-56
2022/05/01 00:59:18;;;;;;;1.00;1.00;;;;;;;;;;5015870;28;20209;-57
2022/05/01 01:02:08;;;;;;;1.03;1.03;;;;;;;;;;5017496;28;20270;-56
2022/05/01 01:04:54;;;;;;;1.83;0.90;;;;;;;;;;5021266;28;20211;-56
2022/05/01 01:07:42;;;;;;;1.33;1.27;;;;;;;;;;5018018;28;20352;-56
2022/05/01 01:10:29;;;;;;;1.13;1.03;;;;;;;;;;5019979;28;20224;-56
2022/05/01 01:13:16;;;;;;;1.00;1.00;;;;;;;;;;5016916;28;20207;-57
2022/05/01 01:16:09;;;;;;;1.27;1.17;;;;;;;;;;5020359;28;20208;-57
2022/05/01 01:18:57;;;;;;;1.20;1.20;;;;;;;;;;5021318;28;20210;-56
2022/05/01 01:21:52;;;;;;;1.10;1.00;;;;;;;;;;5016781;28;20213;-56
2022/05/01 01:24:43;;;;;;;1.90;1.10;;;;;;;;;;5016739;28;20415;-55
2022/05/01 01:27:30;;;;;;;0.80;0.80;;;;;;;;;;5023284;28;20237;-55
2022/05/01 01:33:24;;;;;;;1.03;0.80;;;;;;;;;;5018916;28;20585;-55
2022/05/01 01:36:11;;;;;;;1.43;1.07;;;;;;;;;;5014086;28;20209;-56
2022/05/01 01:39:00;;;;;;;1.20;1.10;;;;;;;;;;5013559;28;20284;-55
2022/05/01 01:41:49;;;;;;;1.27;1.20;;;;;;;;;;5017492;28;20794;-57
2022/05/01 01:44:38;;;;;;;0.90;0.90;;;;;;;;;;5018875;28;20305;-56
2022/05/01 01:47:24;;;;;;;0.93;0.93;;;;;;;;;;5017084;28;20236;-56
2022/05/01 01:50:13;;;;;;;0.83;0.83;;;;;;;;;;5025475;28;20299;-56
2022/05/01 01:53:00;;;;;;;1.00;1.00;;;;;;;;;;5017727;28;20320;-56
2022/05/01 01:55:48;;;;;;;0.70;0.70;;;;;;;;;;5023061;28;20555;-56
2022/05/01 01:58:37;;;;;;;1.57;1.00;;;;;;;;;;5020200;28;20281;-56
2022/05/01 02:01:24;;;;;;;1.17;1.07;;;;;;;;;;5020275;28;20342;-56
2022/05/01 02:04:11;;;;;;;1.13;1.13;;;;;;;;;;5022036;28;20573;-56
2022/05/01 02:06:58;;;;;;;1.97;0.87;;;;;;;;;;5022610;28;20229;-56
2022/05/01 02:09:45;;;;;;;1.20;0.80;;;;;;;;;;5021353;28;20293;-56
2022/05/01 02:12:34;;;;;;;0.70;0.70;;;;;;;;;;5021738;28;20249;-55
2022/05/01 02:15:21;;;;;;;0.97;0.97;;;;;;;;;;5021326;28;20220;-56
2022/05/01 02:18:08;;;;;;;0.97;0.97;;;;;;;;;;5027430;28;20244;-56
2022/05/01 02:24:01;;;;;;;0.90;0.90;;;;;;;;;;5021172;28;20206;-56
2022/05/01 02:26:48;;;;;;;1.20;1.17;;;;;;;;;;5021276;28;20218;-57
2022/05/01 02:29:37;;;;;;;1.23;0.90;;;;;;;;;;5020401;28;20655;-56
2022/05/01 02:32:24;;;;;;;1.20;1.10;;;;;;;;;;5017417;28;20285;-56
2022/05/01 02:35:11;;;;;;;0.80;0.80;;;;;;;;;;5014744;28;20202;-56
2022/05/01 02:37:58;;;;;;;0.80;0.80;;;;;;;;;;5020323;28;20289;-56
2022/05/01 02:40:45;;;;;;;0.80;0.80;;;;;;;;;;5020178;28;20559;-56
2022/05/01 02:43:32;;;;;;;1.03;1.03;;;;;;;;;;5016952;28;20745;-56
2022/05/01 02:46:20;;;;;;;0.80;0.80;;;;;;;;;;5018353;28;20252;-57
2022/05/01 02:49:07;;;;;;;0.70;0.70;;;;;;;;;;5031311;28;20329;-57
2022/05/01 02:51:56;;;;;;;1.47;1.00;;;;;;;;;;5031315;28;20681;-56
2022/05/01 02:54:43;;;;;;;0.87;0.87;;;;;;;;;;5034281;28;20211;-56
2022/05/01 02:57:30;;;;;;;1.33;1.13;;;;;;;;;;5031455;28;20359;-57
2022/05/01 03:00:20;;;;;;;0.83;0.83;;;;;;;;;;5034181;28;20301;-57
2022/05/01 03:03:08;;;;;;;0.63;0.63;;;;;;;;;;5033302;28;20339;-57
2022/05/01 03:05:57;;;;;;;0.73;0.73;;;;;;;;;;5030397;28;20221;-56
2022/05/01 03:08:44;;;;;;;0.93;0.90;;;;;;;;;;5034929;28;20222;-56
2022/05/01 03:11:32;;;;;;;0.80;0.80;;;;;;;;;;5033465;28;20340;-57
2022/05/01 03:14:19;;;;;;;0.90;0.90;;;;;;;;;;5031869;28;20588;-56
2022/05/01 03:17:06;;;;;;;0.70;0.70;;;;;;;;;;5033033;28;20703;-57
2022/05/01 03:22:58;;;;;;;0.90;0.90;;;;;;;;;;5001412;28;20278;-56
2022/05/01 03:25:44;;;;;;;0.80;0.80;;;;;;;;;;5033883;28;20343;-56
2022/05/01 03:28:31;;;;;;;0.80;0.80;;;;;;;;;;5029439;28;20229;-56
2022/05/01 03:31:18;;;;;;;0.67;0.67;;;;;;;;;;5032621;28;20214;-56
2022/05/01 03:34:06;;;;;;;0.90;0.90;;;;;;;;;;5040199;28;20236;-56
2022/05/01 03:36:54;;;;;;;0.80;0.80;;;;;;;;;;5031588;28;20214;-56
2022/05/01 03:39:41;;;;;;;0.70;0.70;;;;;;;;;;5030786;28;20209;-56
2022/05/01 03:42:28;;;;;;;0.80;0.80;;;;;;;;;;5032057;28;20933;-56
2022/05/01 03:45:15;;;;;;;1.27;0.67;;;;;;;;;;5033725;28;20214;-57
2022/05/01 03:48:02;;;;;;;0.80;0.80;;;;;;;;;;5031637;28;20330;-57
2022/05/01 03:50:52;;;;;;;0.73;0.73;;;;;;;;;;5030814;28;20214;-57
2022/05/01 03:53:40;;;;;;;0.63;0.63;;;;;;;;;;5029457;28;20229;-56
2022/05/01 03:56:27;;;;;;;0.87;0.87;;;;;;;;;;5030639;28;20285;-56
2022/05/01 03:59:14;;;;;;;1.07;1.00;;;;;;;;;;5032233;28;20286;-56
2022/05/01 04:02:01;;;;;;;0.87;0.87;;;;;;;;;;5028631;28;20300;-56
2022/05/01 04:04:48;;;;;;;0.90;0.90;;;;;;;;;;5037387;28;20819;-56
2022/05/01 04:07:35;;;;;;;0.70;0.70;;;;;;;;;;5031231;28;20206;-57
2022/05/01 04:10:23;;;;;;;0.67;0.67;;;;;;;;;;5030543;28;20213;-56
2022/05/01 04:13:12;;;;;;;0.70;0.70;;;;;;;;;;5037518;28;20236;-56
2022/05/01 04:15:59;;;;;;;0.83;0.83;;;;;;;;;;5032583;28;20205;-57
2022/05/01 04:18:46;;;;;;;0.60;0.60;;;;;;;;;;5036161;28;20292;-57
2022/05/01 04:21:33;;;;;;;0.73;0.73;;;;;;;;;;5030213;28;20202;-56
2022/05/01 04:24:20;;;;;;;0.60;0.60;;;;;;;;;;5028927;28;20237;-56
2022/05/01 04:27:08;;;;;;;0.87;0.87;;;;;;;;;;5030099;28;20205;-56
2022/05/01 04:29:55;;;;;;;0.80;0.80;;;;;;;;;;5030326;28;20234;-56
2022/05/01 04:32:49;;;;;;;0.90;0.90;;;;;;;;;;5034914;28;20387;-56
2022/05/01 04:35:38;;;;;;;0.93;0.93;;;;;;;;;;5031540;28;20725;-56
2022/05/01 04:38:26;;;;;;;0.80;0.80;;;;;;;;;;5028874;28;20215;-56
2022/05/01 04:41:16;;;;;;;0.90;0.90;;;;;;;;;;5029936;28;20302;-56
2022/05/01 04:44:04;;;;;;;0.67;0.67;;;;;;;;;;5028886;28;20213;-56
2022/05/01 04:46:51;;;;;;;0.67;0.67;;;;;;;;;;5034116;28;20352;-56
2022/05/01 04:49:38;;;;;;;0.73;0.73;;;;;;;;;;5029846;28;20592;-56
2022/05/01 04:52:25;;;;;;;0.50;0.50;;;;;;;;;;5028011;28;20242;-56
2022/05/01 04:55:12;;;;;;;0.77;0.70;;;;;;;;;;5032501;28;20336;-56
2022/05/01 04:57:59;;;;;;;0.70;0.70;;;;;;;;;;5033799;28;20296;-56
2022/05/01 05:00:48;;;;;;;0.77;0.77;;;;;;;;;;5028972;28;20206;-56
2022/05/01 05:03:35;;;;;;;0.77;0.77;;;;;;;;;;5029530;28;20238;-57
2022/05/01 05:06:23;;;;;;;0.80;0.80;;;;;;;;;;5028615;28;20301;-56
2022/05/01 05:12:15;;;;;;;0.63;0.63;;;;;;;;;;5034602;28;20206;-56
2022/05/01 05:15:03;;;;;;;0.70;0.70;;;;;;;;;;5030851;28;20293;-56
2022/05/01 05:17:51;;;;;;;0.50;0.50;;;;;;;;;;5029018;28;20880;-57
2022/05/01 05:20:38;;;;;;;0.70;0.70;;;;;;;;;;5033954;28;20262;-56
2022/05/01 05:23:25;;;;;;;0.70;0.70;;;;;;;;;;5033880;28;20211;-57
2022/05/01 05:26:12;;;;;;;0.70;0.70;;;;;;;;;;5035079;28;20267;-56
2022/05/01 05:28:59;;;;;;;0.57;0.57;;;;;;;;;;5037191;28;20704;-56
2022/05/01 05:31:46;;;;;;;0.60;0.60;;;;;;;;;;5036318;28;20654;-56
2022/05/01 05:34:35;;;;;;;0.63;0.63;;;;;;;;;;5034583;28;20697;-57
2022/05/01 05:37:22;;;;;;;0.63;0.63;;;;;;;;;;5031943;28;20588;-56
2022/05/01 05:40:10;;;;;;;0.70;0.70;;;;;;;;;;5032717;28;20292;-57
2022/05/01 05:42:57;;;;;;;0.70;0.70;;;;;;;;;;5031750;28;20243;-56
2022/05/01 05:45:45;;;;;;;0.77;0.77;;;;;;;;;;5037969;28;20208;-56
2022/05/01 05:48:32;;;;;;;0.80;0.80;;;;;;;;;;5032815;28;20239;-56
2022/05/01 05:51:20;;;;;;;0.80;0.70;;;;;;;;;;5032887;28;20275;-56
2022/05/01 05:54:07;;;;;;;0.47;0.47;;;;;;;;;;5032014;28;20276;-56
2022/05/01 05:56:54;;;;;;;0.67;0.67;;;;;;;;;;5037807;28;20237;-56
2022/05/01 05:59:41;;;;;;;0.80;0.80;;;;;;;;;;5038421;28;20348;-56
2022/05/01 06:02:28;;;;;;;0.63;0.60;;;;;;;;;;5033358;28;20231;-56
2022/05/01 06:05:15;;;;;;;0.67;0.67;;;;;;;;;;5032493;28;20209;-56
2022/05/01 06:08:04;;;;;;;0.60;0.60;;;;;;;;;;5034745;28;20290;-56
2022/05/01 06:10:50;;;;;;;0.50;0.50;;;;;;;;;;5038859;28;20374;-57
2022/05/01 06:13:37;;;;;;;0.60;0.60;;;;;;;;;;5034951;28;20290;-56
2022/05/01 06:16:24;;;;;;;0.60;0.60;;;;;;;;;;5033358;28;20341;-56
2022/05/01 06:19:11;;;;;;;0.60;0.60;;;;;;;;;;5034794;28;20289;-57
2022/05/01 06:21:58;;;;;;;0.60;0.60;;;;;;;;;;5032827;28;20640;-57
2022/05/01 06:24:46;;;;;;;0.70;0.70;;;;;;;;;;5031742;28;20609;-56
2022/05/01 06:27:33;;;;;;;0.70;0.70;;;;;;;;;;5030256;28;20309;-56
2022/05/01 06:30:20;;;;;;;0.60;0.60;;;;;;;;;;5033051;28;20232;-56
2022/05/01 06:33:09;;;;;;;0.70;0.70;;;;;;;;;;5031472;28;20203;-56
2022/05/01 06:35:57;;;;;;;0.60;0.60;;;;;;;;;;5033067;28;20214;-56
2022/05/01 06:38:44;;;;;;;0.60;0.60;;;;;;;;;;5037948;28;20329;-56
2022/05/01 06:41:33;;;;;;;0.47;0.47;;;;;;;;;;5032784;28;20250;-56
2022/05/01 06:44:20;;;;;;;0.60;0.60;;;;;;;;;;5031184;28;20250;-57
2022/05/01 06:47:08;;;;;;;0.60;0.60;;;;;;;;;;5031219;28;20244;-57
2022/05/01 06:49:55;;;;;;;0.57;0.57;;;;;;;;;;5033820;28;20234;-56
2022/05/01 06:52:42;;;;;;;0.50;0.50;;;;;;;;;;5030650;28;20237;-56
2022/05/01 06:55:29;;;;;;;0.50;0.50;;;;;;;;;;5034054;28;20210;-56
2022/05/01 06:58:17;;;;;;;0.53;0.53;;;;;;;;;;5034975;28;20739;-56
2022/05/01 07:01:07;;;;;;;0.50;0.50;;;;;;;;;;5030097;28;20234;-56
2022/05/01 07:03:54;;;;;;;0.50;0.50;;;;;;;;;;5034501;28;20205;-54
2022/05/01 07:06:42;;;;;;;0.40;0.40;;;;;;;;;;5034021;28;20329;-54
2022/05/01 07:09:29;;;;;;;0.50;0.50;;;;;;;;;;5034916;28;20708;-55
2022/05/01 07:12:16;;;;;;;0.50;0.50;;;;;;;;;;5035053;28;20250;-55
2022/05/01 07:15:05;;;;;;;0.40;0.40;;;;;;;;;;5029424;28;20283;-54
2022/05/01 07:17:52;;;;;;;0.60;0.60;;;;;;;;;;5032282;28;20295;-54
2022/05/01 07:20:39;;;;;;;0.55;0.55;;;;;;;;;;5035553;28;20216;-54
2022/05/01 07:23:27;;;;;;;0.50;0.50;;;;;;;;;;5031195;28;20307;-55
2022/05/01 07:26:14;;;;;;;0.52;0.52;;;;;;;;;;5031190;28;20223;-54
2022/05/01 07:29:01;;;;;;;0.45;0.45;;;;;;;;;;5031033;28;20775;-55
2022/05/01 07:31:49;;;;;;;0.50;0.50;;;;;;;;;;5030689;28;20683;-53
2022/05/01 07:34:36;;;;;;;0.50;0.50;;;;;;;;;;5032602;28;20200;-53
2022/05/01 07:37:26;;;;;;;0.45;0.45;;;;;;;;;;5030747;28;20220;-54
2022/05/01 07:40:13;;;;;;;0.50;0.50;;;;;;;;;;5034058;28;20209;-53
2022/05/01 07:43:00;;;;;;;0.50;0.50;;;;;;;;;;5030392;28;20239;-54
2022/05/01 07:45:47;;;;;;;0.43;0.43;;;;;;;;;;5029888;28;20622;-54
2022/05/01 07:48:35;;;;;;;0.40;0.40;;;;;;;;;;5032358;28;20370;-54
2022/05/01 07:51:22;;;;;;;0.50;0.50;;;;;;;;;;5030475;28;20732;-53
2022/05/01 07:54:09;;;;;;;0.40;0.40;;;;;;;;;;5030473;28;20426;-53
2022/05/01 07:56:56;;;;;;;0.55;0.55;;;;;;;;;;5029762;28;20287;-54
2022/05/01 07:59:43;;;;;;;0.50;0.50;;;;;;;;;;5033972;28;20595;-53
2022/05/01 08:04:27;;;;;;;0.20;0.20;;;;;;;;;;5032431;28;20315;-53
2022/05/01 08:05:42;;;;;;;0.30;0.30;;;;;;;;;;5033107;28;20219;-53
2022/05/01 08:08:33;;;;;;;0.50;0.50;;;;;;;;;;5032756;28;20208;-53
2022/05/01 08:11:20;;;;;;;0.40;0.40;;;;;;;;;;5031228;28;20221;-53
2022/05/01 08:14:08;;;;;;;0.30;0.30;;;;;;;;;;5031266;28;20291;-54
2022/05/01 08:16:56;;;;;;;0.43;0.43;;;;;;;;;;5031361;28;20335;-53
2022/05/01 08:22:48;;;;;;;0.40;0.40;;;;;;;;;;5030292;28;20212;-54
2022/05/01 08:25:36;;;;;;;0.52;0.52;;;;;;;;;;5031406;28;20294;-54
2022/05/01 08:28:23;;;;;;;0.60;0.60;;;;;;;;;;5031970;28;20296;-54
2022/05/01 08:31:10;;;;;;;0.40;0.40;;;;;;;;;;5031016;28;20221;-54
2022/05/01 08:33:57;;;;;;;0.43;0.43;;;;;;;;;;5029058;28;20250;-53
2022/05/01 08:36:45;;;;;;;0.40;0.40;;;;;;;;;;5024056;28;20566;-54
2022/05/01 08:39:33;;;;;;;0.40;0.40;;;;;;;;;;5025511;28;20235;-54
2022/05/01 08:42:23;;;;;;;0.55;0.55;;;;;;;;;;5021762;28;20270;-55
2022/05/01 08:45:10;;;;;;;0.65;0.65;;;;;;;;;;5026013;28;20297;-54
2022/05/01 08:48:05;;;;;;;0.50;0.50;;;;;;;;;;5026880;28;20718;-54
2022/05/01 08:50:53;;;;;;;0.55;0.55;;;;;;;;;;5030730;28;20234;-54
2022/05/01 08:53:42;;;;;;;0.60;0.60;;;;;;;;;;5027539;28;20318;-55
2022/05/01 08:56:32;;;;;;;0.55;0.38;;;;;;;;;;5027274;28;20249;-55
2022/05/01 08:59:20;;;;;;;0.32;0.32;;;;;;;;;;5026115;28;20201;-55
2022/05/01 09:02:11;;;;;;;1.55;0.50;;;;;;;;;;5031945;28;20741;-55
2022/05/01 09:04:59;;;;;;;0.40;0.40;;;;;;;;;;5031219;28;20207;-54
2022/05/01 09:07:47;;;;;;;0.35;0.35;;;;;;;;;;5026936;28;20268;-55
2022/05/01 09:10:34;;;;;;;0.50;0.50;;;;;;;;;;5030043;28;20587;-55
2022/05/01 09:13:25;;;;;;;0.20;0.20;;;;;;;;;;5027321;28;20292;-55
2022/05/01 09:16:13;;;;;;;0.55;0.55;;;;;;;;;;5028285;28;20225;-55
2022/05/01 09:19:00;;;;;;;0.60;0.60;;;;;;;;;;5027490;28;20249;-55
2022/05/01 09:21:53;;;;;;;0.47;0.47;;;;;;;;;;5028480;28;20214;-55
2022/05/01 09:24:40;;;;;;;2.13;0.68;;;;;;;;;;5029303;28;20223;-55
2022/05/01 09:27:29;;;;;;;0.68;0.68;;;;;;;;;;5027483;28;20536;-55
2022/05/01 09:30:20;;;;;;;0.70;0.70;;;;;;;;;;5032233;28;20617;-56
2022/05/01 09:33:18;;;;;;;0.47;0.40;;;;;;;;;;5026187;28;20215;-56
2022/05/01 09:36:06;;;;;;;0.50;0.50;;;;;;;;;;5027454;28;20568;-56
2022/05/01 09:39:05;;;;;;;0.63;0.63;;;;;;;;;;5025929;28;20217;-56
2022/05/01 09:41:54;;;;;;;0.40;0.40;;;;;;;;;;5026457;28;20206;-56
2022/05/01 09:44:41;;;;;;;0.43;0.43;;;;;;;;;;5027886;28;20210;-56
2022/05/01 09:47:39;;;;;;;0.60;0.57;;;;;;;;;;5029640;28;20242;-55
2022/05/01 09:50:43;;;;;;;0.60;0.60;;;;;;;;;;5031980;28;20309;-56
2022/05/01 09:53:42;;;;;;;0.40;0.40;;;;;;;;;;5027552;28;20229;-55
2022/05/01 09:56:29;;;;;;;0.77;0.43;;;;;;;;;;5029817;28;20227;-56
2022/05/01 09:59:17;;;;;;;1.80;0.60;;;;;;;;;;5029456;28;20583;-55
2022/05/01 10:02:06;;;;;;;0.40;0.40;;;;;;;;;;5028963;28;20302;-55
2022/05/01 10:04:57;;;;;;;0.37;0.33;;;;;;;;;;5028392;28;20242;-55
2022/05/01 10:07:44;;;;;;;0.60;0.57;;;;;;;;;;5036862;28;20302;-55
2022/05/01 10:10:31;;;;;;;0.87;0.47;;;;;;;;;;5034267;28;20359;-55
2022/05/01 10:13:19;;;;;;;0.50;0.50;;;;;;;;;;5037058;28;20296;-55
2022/05/01 10:16:10;;;;;;;0.50;0.50;;;;;;;;;;5036207;28;20361;-56
2022/05/01 10:18:58;;;;;;;0.87;0.50;;;;;;;;;;5033278;28;20214;-55
2022/05/01 10:21:48;;;;;;;0.70;0.50;;;;;;;;;;5036498;28;20732;-55
2022/05/01 10:24:37;;;;;;;0.30;0.30;;;;;;;;;;5031009;28;20206;-55
2022/05/01 10:27:31;;;;;;;0.60;0.60;;;;;;;;;;5031648;28;20642;-56
2022/05/01 10:33:41;;;;;;;0.40;0.40;;;;;;;;;;5033590;28;20210;-55
2022/05/01 10:36:57;;;;;;;0.30;0.30;;;;;;;;;;5031390;28;20208;-55
2022/05/01 10:39:45;;;;;;;0.50;0.50;;;;;;;;;;5031240;28;20358;-56
2022/05/01 10:42:34;;;;;;;0.40;0.40;;;;;;;;;;5033448;28;20703;-57
2022/05/01 10:45:43;;;;;;;0.40;0.40;;;;;;;;;;5032483;28;20691;-58
2022/05/01 10:48:32;;;;;;;0.30;0.30;;;;;;;;;;5030834;28;20760;-56
2022/05/01 10:51:46;;;;;;;0.40;0.40;;;;;;;;;;5030416;28;20726;-56
2022/05/01 10:54:37;;;;;;;0.40;0.40;;;;;;;;;;5039284;28;20275;-55
2022/05/01 10:57:25;;;;;;;0.40;0.40;;;;;;;;;;5037447;28;20320;-55
2022/05/01 11:00:13;;;;;;;0.40;0.40;;;;;;;;;;5034297;28;20210;-55
2022/05/01 11:03:24;;;;;;;0.20;0.20;;;;;;;;;;5032101;28;20211;-56
2022/05/01 11:06:13;;;;;;;0.30;0.30;;;;;;;;;;5033706;28;20208;-60
2022/05/01 11:09:01;;;;;;;0.40;0.40;;;;;;;;;;5033980;28;20310;-55
2022/05/01 11:11:53;;;;;;;0.60;0.60;;;;;;;;;;5032390;28;20246;-56
2022/05/01 11:14:41;;;;;;;0.30;0.30;;;;;;;;;;5030848;28;20269;-56
2022/05/01 11:17:46;;;;;;;0.93;0.40;;;;;;;;;;5031366;28;20334;-56
2022/05/01 11:20:34;;;;;;;0.40;0.40;;;;;;;;;;5034309;28;20215;-56
2022/05/01 11:23:33;;;;;;;0.40;0.40;;;;;;;;;;5032372;28;20606;-55
2022/05/01 11:26:20;;;;;;;0.20;0.20;;;;;;;;;;5032648;28;20215;-56
2022/05/01 11:29:13;;;;;;;0.40;0.40;;;;;;;;;;5032288;28;20329;-57
2022/05/01 11:32:21;;;;;;;0.47;0.47;;;;;;;;;;5034190;28;20288;-56
2022/05/01 11:35:08;;;;;;;0.33;0.30;;;;;;;;;;5030610;28;20335;-55
2022/05/01 11:38:09;;;;;;;0.40;0.40;;;;;;;;;;5032829;28;20764;-55
2022/05/01 11:40:57;;;;;;;0.40;0.40;;;;;;;;;;5029424;28;20212;-56
2022/05/01 11:43:44;;;;;;;0.70;0.40;;;;;;;;;;5031490;28;20200;-55
2022/05/01 11:46:32;;;;;;;0.40;0.40;;;;;;;;;;5033676;28;20685;-55
2022/05/01 11:49:19;;;;;;;0.40;0.40;;;;;;;;;;5031566;28;20514;-56
2022/05/01 11:52:07;;;;;;;0.40;0.40;;;;;;;;;;5034321;28;20296;-56
2022/05/01 11:54:56;;;;;;;0.30;0.30;;;;;;;;;;5034215;28;20249;-56
2022/05/01 12:03:50;;;;;;;0.40;0.40;;;;;;;;;;5029927;28;20219;-56
2022/05/01 12:06:41;;;;;;;0.30;0.30;;;;;;;;;;5030738;28;20229;-56
2022/05/01 12:09:29;;;;;;;0.20;0.20;;;;;;;;;;5033003;28;20223;-55
2022/05/01 12:12:19;;;;;;;0.40;0.40;;;;;;;;;;5028526;28;20471;-56
2022/05/01 12:15:07;;;;;;;1.03;0.60;;;;;;;;;;5039451;28;20606;-55
2022/05/01 12:17:54;;;;;;;0.33;0.33;;;;;;;;;;5030335;28;20750;-56
2022/05/01 12:20:42;;;;;;;0.43;0.43;;;;;;;;;;5033606;28;20295;-56
2022/05/01 12:23:29;;;;;;;0.53;0.50;;;;;;;;;;5032180;28;20277;-55
2022/05/01 12:26:16;;;;;;;0.47;0.47;;;;;;;;;;5031192;28;20264;-56
2022/05/01 12:29:07;;;;;;;0.40;0.40;;;;;;;;;;5029358;28;20230;-56
2022/05/01 12:31:55;;;;;;;0.30;0.30;;;;;;;;;;5029415;28;20692;-57
2022/05/01 12:34:56;;;;;;;0.83;0.30;;;;;;;;;;5031617;28;20293;-56
2022/05/01 12:37:45;;;;;;;0.20;0.20;;;;;;;;;;5028934;28;20215;-55
2022/05/01 12:46:53;;;;;;;0.30;0.30;;;;;;;;;;5025627;28;20655;-55
2022/05/01 12:49:39;;;;;;;0.43;0.43;;;;;;;;;;5028360;28;20708;-56
2022/05/01 12:52:33;;;;;;;0.43;0.43;;;;;;;;;;5026944;28;20274;-56
2022/05/01 12:55:23;;;;;;;0.50;0.40;;;;;;;;;;5028781;28;20588;-57
2022/05/01 12:58:11;;;;;;;0.37;0.37;;;;;;;;;;5029465;28;20284;-55
2022/05/01 13:00:59;;;;;;;0.40;0.40;;;;;;;;;;5033084;28;20209;-56
2022/05/01 13:03:46;;;;;;;0.40;0.40;;;;;;;;;;5028811;28;20209;-55
2022/05/01 13:06:38;;;;;;;0.53;0.43;;;;;;;;;;5025965;28;20264;-56
2022/05/01 13:09:25;;;;;;;0.57;0.57;;;;;;;;;;5029739;28;20209;-56
2022/05/01 13:12:14;;;;;;;0.63;0.63;;;;;;;;;;5032237;28;20668;-56
2022/05/01 13:15:04;;;;;;;0.40;0.40;;;;;;;;;;5028860;28;20210;-55
2022/05/01 13:18:00;;;;;;;0.30;0.30;;;;;;;;;;5027625;28;20207;-56
2022/05/01 13:20:48;;;;;;;0.40;0.40;;;;;;;;;;5029030;28;20209;-56
2022/05/01 13:23:35;;;;;;;0.90;0.70;;;;;;;;;;5027776;28;20296;-56
2022/05/01 13:26:22;;;;;;;0.50;0.50;;;;;;;;;;5025777;28;20218;-56
2022/05/01 13:29:11;;;;;;;1.83;0.60;;;;;;;;;;5031237;28;20240;-56
2022/05/01 13:32:00;;;;;;;0.73;0.73;;;;;;;;;;5027282;28;20330;-56
2022/05/01 13:34:47;;;;;;;0.50;0.50;;;;;;;;;;5026288;28;20296;-56
2022/05/01 13:37:34;;;;;;;0.40;0.40;;;;;;;;;;5024807;28;20323;-56
2022/05/01 13:46:30;;;;;;;0.57;0.57;;;;;;;;;;5033047;28;20775;-55
2022/05/01 13:49:17;;;;;;;0.57;0.57;;;;;;;;;;5031205;28;20251;-55
2022/05/01 13:52:05;;;;;;;0.77;0.50;;;;;;;;;;5029139;28;20375;-55
2022/05/01 13:54:53;;;;;;;0.60;0.60;;;;;;;;;;5027806;28;20319;-55
2022/05/01 13:57:43;;;;;;;0.60;0.60;;;;;;;;;;5037055;28;20682;-55
2022/05/01 14:00:30;;;;;;;0.70;0.70;;;;;;;;;;5031493;28;20234;-56
2022/05/01 14:03:19;;;;;;;0.60;0.60;;;;;;;;;;5030854;28;20827;-55
2022/05/01 14:06:06;;;;;;;0.60;0.60;;;;;;;;;;5030808;28;20295;-56
2022/05/01 14:08:53;;;;;;;0.67;0.50;;;;;;;;;;5029445;28;20342;-56
2022/05/01 14:11:40;;;;;;;0.50;0.50;;;;;;;;;;5033857;28;20307;-55
2022/05/01 14:14:27;;;;;;;0.97;0.50;;;;;;;;;;5031359;28;20753;-55
2022/05/01 14:17:14;;;;;;;0.40;0.40;;;;;;;;;;5028836;28;20741;-55
2022/05/01 14:20:04;;;;;;;0.50;0.50;;;;;;;;;;5030073;28;20214;-56
2022/05/01 14:22:51;;;;;;;0.60;0.60;;;;;;;;;;5032453;28;20309;-56
2022/05/01 14:25:38;;;;;;;0.60;0.60;;;;;;;;;;5029010;28;20216;-56
2022/05/01 14:28:25;;;;;;;0.60;0.60;;;;;;;;;;5033042;28;20208;-56
2022/05/01 14:31:19;;;;;;;0.70;0.70;;;;;;;;;;5030559;28;20266;-56
2022/05/01 14:34:10;;;;;;;0.70;0.70;;;;;;;;;;5030659;28;20270;-56
2022/05/01 14:37:00;;;;;;;0.60;0.53;;;;;;;;;;5033004;28;20301;-56
2022/05/01 14:39:48;;;;;;;0.70;0.70;;;;;;;;;;5032532;28;20207;-56
2022/05/01 14:42:36;;;;;;;0.70;0.70;;;;;;;;;;5029388;28;20692;-57
2022/05/01 14:45:23;;;;;;;0.83;0.83;;;;;;;;;;5030178;28;20219;-56
2022/05/01 14:48:19;;;;;;;0.73;0.73;;;;;;;;;;5027222;28;20233;-57
2022/05/01 14:51:08;;;;;;;0.70;0.70;;;;;;;;;;5027401;28;20319;-57
2022/05/01 14:53:57;;;;;;;0.73;0.73;;;;;;;;;;5029743;28;20318;-57
2022/05/01 14:56:45;;;;;;;0.80;0.80;;;;;;;;;;5029246;28;20236;-57
2022/05/01 15:08:53;;;;;;;0.70;0.70;;;;;;;;;;5030176;28;20218;-57
2022/05/01 15:11:41;;;;;;;0.53;0.53;;;;;;;;;;5031035;28;20258;-56
2022/05/01 15:14:31;;;;;;;0.77;0.77;;;;;;;;;;5028911;28;20289;-56
2022/05/01 15:17:24;;;;;;;1.80;0.70;;;;;;;;;;5030138;28;20209;-57
2022/05/01 15:20:20;;;;;;;0.70;0.70;;;;;;;;;;5030314;28;20214;-57
2022/05/01 15:23:14;;;;;;;0.67;0.67;;;;;;;;;;5029021;28;20267;-57
2022/05/01 15:26:02;;;;;;;1.00;0.90;;;;;;;;;;5028757;28;20207;-56
2022/05/01 15:28:51;;;;;;;0.93;0.83;;;;;;;;;;5030702;28;20261;-56
2022/05/01 15:31:42;;;;;;;0.90;0.90;;;;;;;;;;5031635;28;20298;-56
2022/05/01 15:34:33;;;;;;;0.40;0.40;;;;;;;;;;5027312;28;20211;-56
2022/05/01 15:37:23;;;;;;;0.50;0.50;;;;;;;;;;5029896;28;20786;-57
2022/05/01 15:40:13;;;;;;;0.57;0.57;;;;;;;;;;5031782;28;20828;-56
2022/05/01 15:43:01;;;;;;;0.70;0.70;;;;;;;;;;5027567;28;20243;-56
2022/05/01 15:45:54;;;;;;;1.67;0.83;;;;;;;;;;5028378;28;20215;-56
2022/05/01 15:54:53;;;;;;;0.60;0.60;;;;;;;;;;5029122;28;20617;-56
2022/05/01 15:57:41;;;;;;;0.90;0.90;;;;;;;;;;5029029;28;20197;-57
2022/05/01 16:00:30;;;;;;;0.97;0.97;;;;;;;;;;5029191;28;20696;-56
2022/05/01 16:03:18;;;;;;;0.70;0.70;;;;;;;;;;5032566;28;20218;-56
2022/05/01 16:06:05;;;;;;;0.50;0.50;;;;;;;;;;5030764;28;20289;-56
2022/05/01 16:08:54;;;;;;;0.83;0.70;;;;;;;;;;5026919;28;20360;-56
2022/05/01 16:11:49;;;;;;;0.67;0.60;;;;;;;;;;5031210;28;20227;-56
2022/05/01 16:14:44;;;;;;;0.57;0.57;;;;;;;;;;5027649;28;20626;-56
2022/05/01 16:17:48;;;;;;;0.50;0.50;;;;;;;;;;5027127;28;20203;-57
2022/05/01 16:20:44;;;;;;;0.60;0.60;;;;;;;;;;5029386;28;20337;-56
2022/05/01 16:23:41;;;;;;;0.60;0.60;;;;;;;;;;5028253;28;20210;-57
2022/05/01 16:26:31;;;;;;;0.80;0.80;;;;;;;;;;5026047;28;20305;-56
2022/05/01 16:29:26;;;;;;;0.53;0.50;;;;;;;;;;5031936;28;20207;-56
2022/05/01 16:32:22;;;;;;;0.80;0.80;;;;;;;;;;5025105;28;20319;-56
2022/05/01 16:35:11;;;;;;;0.97;0.90;;;;;;;;;;5026732;28;20318;-57
2022/05/01 16:38:02;;;;;;;0.53;0.53;;;;;;;;;;5028401;28;20297;-56
2022/05/01 16:40:53;;;;;;;0.80;0.80;;;;;;;;;;5027506;28;20538;-57
2022/05/01 16:43:40;;;;;;;0.67;0.67;;;;;;;;;;5027553;28;20206;-56
2022/05/01 16:46:28;;;;;;;0.97;0.70;;;;;;;;;;5027670;28;20301;-57
2022/05/01 16:49:16;;;;;;;0.70;0.70;;;;;;;;;;5031396;28;20570;-56
2022/05/01 16:52:04;;;;;;;1.50;0.80;;;;;;;;;;5027069;28;20308;-56
2022/05/01 16:54:55;;;;;;;1.03;0.60;;;;;;;;;;5028023;28;20335;-56
2022/05/01 16:57:43;;;;;;;0.50;0.50;;;;;;;;;;5027712;28;20288;-56
2022/05/01 17:00:31;;;;;;;0.77;0.77;;;;;;;;;;5027627;28;20224;-56
2022/05/01 17:03:23;;;;;;;0.70;0.70;;;;;;;;;;5025938;28;20197;-56
2022/05/01 17:06:15;;;;;;;0.83;0.83;;;;;;;;;;5029330;28;20344;-57
2022/05/01 17:09:09;;;;;;;1.30;0.77;;;;;;;;;;5028370;28;20296;-56
2022/05/01 17:12:04;;;;;;;0.70;0.70;;;;;;;;;;5030054;28;20708;-57
2022/05/01 17:15:03;;;;;;;0.70;0.70;;;;;;;;;;5028767;28;20747;-56
2022/05/01 17:18:06;;;;;;;0.67;0.67;;;;;;;;;;5032566;28;20433;-56
2022/05/01 17:21:06;;;;;;;0.50;0.50;;;;;;;;;;5033028;28;20208;-56
2022/05/01 17:24:00;;;;;;;0.60;0.60;;;;;;;;;;5031250;28;20204;-57
2022/05/01 17:26:49;;;;;;;0.57;0.57;;;;;;;;;;5033508;28;20612;-56
2022/05/01 17:29:57;;;;;;;0.83;0.80;;;;;;;;;;5031463;28;20847;-56
2022/05/01 17:32:49;;;;;;;0.90;0.90;;;;;;;;;;5033361;28;20264;-56
2022/05/01 17:35:37;;;;;;;0.60;0.60;;;;;;;;;;5032915;28;20249;-56
2022/05/01 17:38:26;;;;;;;0.67;0.67;;;;;;;;;;5031303;28;20396;-56
2022/05/01 17:41:13;;;;;;;0.83;0.83;;;;;;;;;;5033532;28;20212;-56
2022/05/01 17:44:02;;;;;;;0.80;0.80;;;;;;;;;;5028913;28;20206;-56
2022/05/01 17:46:52;;;;;;;0.80;0.80;;;;;;;;;;5036627;28;20819;-57
2022/05/01 17:49:40;;;;;;;0.97;0.70;;;;;;;;;;5032733;28;20208;-56